sensor_id;sensor_type;location;lat;lon;timestamp;P1;durP1;ratioP1;P2;durP2;ratioP2
9188;SDS011;34313;50.780;6.084;2023-06-10T00:02:10;11.40;;;7.73;;
9188;SDS011;34313;50.780;6.084;2023-06-10T00:04:35;9.70;;;7.77;;
9188;SDS011;34313;50.780;6.084;2023-06-10T00:07:02;7.90;;;7.10;;
9188;SDS011;34313;50.780;6.084;2023-06-10T00:09:39;9.20;;;8.07;;
9188;SDS011;34313;50.780;6.084;2023-06-10T00:12:05;9.73;;;7.87;;
9188;SDS011;34313;50.780;6.084;2023-06-10T00:14:32;11.33;;;7.60;;
9188;SDS011;34313;50.780;6.084;2023-06-10T00:16:58;10.80;;;7.60;;
9188;SDS011;34313;50.780;6.084;2023-06-10T00:19:24;10.27;;;7.43;;
9188;SDS011;34313;50.780;6.084;2023-06-10T00:21:55;8.03;;;6.60;;
9188;SDS011;34313;50.780;6.084;2023-06-10T00:24:20;11.03;;;7.47;;
9188;SDS011;34313;50.780;6.084;2023-06-10T00:26:46;8.67;;;7.63;;
9188;SDS011;34313;50.780;6.084;2023-06-10T00:29:11;10.63;;;7.90;;
9188;SDS011;34313;50.780;6.084;2023-06-10T00:31:37;7.87;;;7.07;;
9188;SDS011;34313;50.780;6.084;2023-06-10T00:34:03;12.83;;;7.87;;
9188;SDS011;34313;50.780;6.084;2023-06-10T00:36:28;9.40;;;8.13;;
9188;SDS011;34313;50.780;6.084;2023-06-10T00:38:55;8.63;;;7.70;;
9188;SDS011;34313;50.780;6.084;2023-06-10T00:41:20;8.30;;;7.37;;
9188;SDS011;34313;50.780;6.084;2023-06-10T00:43:45;8.67;;;7.53;;
9188;SDS011;34313;50.780;6.084;2023-06-10T00:46:11;9.73;;;8.30;;
9188;SDS011;34313;50.780;6.084;2023-06-10T00:48:37;9.57;;;8.37;;
9188;SDS011;34313;50.780;6.084;2023-06-10T00:51:04;8.73;;;7.83;;
9188;SDS011;34313;50.780;6.084;2023-06-10T00:53:30;9.50;;;8.07;;
9188;SDS011;34313;50.780;6.084;2023-06-10T00:55:57;9.93;;;8.17;;
9188;SDS011;34313;50.780;6.084;2023-06-10T00:58:23;8.73;;;7.43;;
9188;SDS011;34313;50.780;6.084;2023-06-10T01:00:50;10.30;;;8.07;;
9188;SDS011;34313;50.780;6.084;2023-06-10T01:03:16;12.63;;;7.53;;
9188;SDS011;34313;50.780;6.084;2023-06-10T01:05:42;10.60;;;7.80;;
9188;SDS011;34313;50.780;6.084;2023-06-10T01:08:24;10.80;;;8.00;;
9188;SDS011;34313;50.780;6.084;2023-06-10T01:11:00;9.80;;;8.57;;
9188;SDS011;34313;50.780;6.084;2023-06-10T01:13:29;10.23;;;9.13;;
9188;SDS011;34313;50.780;6.084;2023-06-10T01:15:58;9.33;;;7.77;;
9188;SDS011;34313;50.780;6.084;2023-06-10T01:18:23;10.00;;;8.27;;
9188;SDS011;34313;50.780;6.084;2023-06-10T01:20:55;10.50;;;9.00;;
9188;SDS011;34313;50.780;6.084;2023-06-10T01:23:21;9.57;;;8.57;;
9188;SDS011;34313;50.780;6.084;2023-06-10T01:25:55;12.97;;;9.20;;
9188;SDS011;34313;50.780;6.084;2023-06-10T01:31:43;12.40;;;9.47;;
9188;SDS011;34313;50.780;6.084;2023-06-10T01:34:16;10.47;;;9.20;;
9188;SDS011;34313;50.780;6.084;2023-06-10T01:36:48;11.47;;;9.73;;
9188;SDS011;34313;50.780;6.084;2023-06-10T01:39:14;10.43;;;8.57;;
9188;SDS011;34313;50.780;6.084;2023-06-10T01:41:41;9.80;;;8.30;;
9188;SDS011;34313;50.780;6.084;2023-06-10T01:44:07;9.83;;;8.77;;
9188;SDS011;34313;50.780;6.084;2023-06-10T01:46:34;9.90;;;8.50;;
9188;SDS011;34313;50.780;6.084;2023-06-10T01:49:00;10.23;;;8.07;;
9188;SDS011;34313;50.780;6.084;2023-06-10T01:51:25;11.87;;;9.13;;
9188;SDS011;34313;50.780;6.084;2023-06-10T01:53:51;10.03;;;9.00;;
9188;SDS011;34313;50.780;6.084;2023-06-10T01:56:16;13.07;;;9.00;;
9188;SDS011;34313;50.780;6.084;2023-06-10T01:58:42;9.50;;;8.60;;
9188;SDS011;34313;50.780;6.084;2023-06-10T02:01:09;9.33;;;8.37;;
9188;SDS011;34313;50.780;6.084;2023-06-10T02:03:34;13.70;;;9.90;;
9188;SDS011;34313;50.780;6.084;2023-06-10T02:06:00;13.93;;;9.17;;
9188;SDS011;34313;50.780;6.084;2023-06-10T02:08:25;9.53;;;8.50;;
9188;SDS011;34313;50.780;6.084;2023-06-10T02:10:52;10.10;;;8.93;;
9188;SDS011;34313;50.780;6.084;2023-06-10T02:13:17;12.53;;;8.90;;
9188;SDS011;34313;50.780;6.084;2023-06-10T02:15:43;9.90;;;9.00;;
9188;SDS011;34313;50.780;6.084;2023-06-10T02:18:08;10.93;;;9.57;;
9188;SDS011;34313;50.780;6.084;2023-06-10T02:20:34;10.27;;;9.20;;
9188;SDS011;34313;50.780;6.084;2023-06-10T02:23:00;9.97;;;8.97;;
9188;SDS011;34313;50.780;6.084;2023-06-10T02:25:25;10.07;;;9.07;;
9188;SDS011;34313;50.780;6.084;2023-06-10T02:27:50;13.30;;;8.93;;
9188;SDS011;34313;50.780;6.084;2023-06-10T02:30:16;11.30;;;9.90;;
9188;SDS011;34313;50.780;6.084;2023-06-10T02:32:41;10.80;;;9.27;;
9188;SDS011;34313;50.780;6.084;2023-06-10T02:35:06;13.20;;;9.37;;
9188;SDS011;34313;50.780;6.084;2023-06-10T02:37:32;10.80;;;9.70;;
9188;SDS011;34313;50.780;6.084;2023-06-10T02:39:57;13.60;;;9.80;;
9188;SDS011;34313;50.780;6.084;2023-06-10T02:42:22;11.10;;;9.63;;
9188;SDS011;34313;50.780;6.084;2023-06-10T02:44:47;10.33;;;9.33;;
9188;SDS011;34313;50.780;6.084;2023-06-10T02:47:13;12.57;;;10.10;;
9188;SDS011;34313;50.780;6.084;2023-06-10T02:49:38;10.53;;;9.50;;
9188;SDS011;34313;50.780;6.084;2023-06-10T02:52:04;12.03;;;8.23;;
9188;SDS011;34313;50.780;6.084;2023-06-10T02:54:29;11.30;;;9.37;;
9188;SDS011;34313;50.780;6.084;2023-06-10T02:56:54;11.67;;;10.00;;
9188;SDS011;34313;50.780;6.084;2023-06-10T02:59:21;10.70;;;9.60;;
9188;SDS011;34313;50.780;6.084;2023-06-10T03:01:46;10.77;;;9.37;;
9188;SDS011;34313;50.780;6.084;2023-06-10T03:04:12;11.60;;;9.77;;
9188;SDS011;34313;50.780;6.084;2023-06-10T03:06:39;13.30;;;10.33;;
9188;SDS011;34313;50.780;6.084;2023-06-10T03:09:10;15.30;;;10.30;;
9188;SDS011;34313;50.780;6.084;2023-06-10T03:11:35;11.03;;;9.93;;
9188;SDS011;34313;50.780;6.084;2023-06-10T03:14:01;11.80;;;10.60;;
9188;SDS011;34313;50.780;6.084;2023-06-10T03:16:26;11.60;;;10.23;;
9188;SDS011;34313;50.780;6.084;2023-06-10T03:18:52;10.70;;;9.60;;
9188;SDS011;34313;50.780;6.084;2023-06-10T03:21:18;10.53;;;9.43;;
9188;SDS011;34313;50.780;6.084;2023-06-10T03:23:43;12.17;;;10.70;;
9188;SDS011;34313;50.780;6.084;2023-06-10T03:26:08;11.87;;;10.20;;
9188;SDS011;34313;50.780;6.084;2023-06-10T03:28:35;13.47;;;11.07;;
9188;SDS011;34313;50.780;6.084;2023-06-10T03:31:00;12.10;;;10.50;;
9188;SDS011;34313;50.780;6.084;2023-06-10T03:33:25;13.00;;;11.40;;
9188;SDS011;34313;50.780;6.084;2023-06-10T03:35:51;13.80;;;10.60;;
9188;SDS011;34313;50.780;6.084;2023-06-10T03:38:16;13.10;;;10.23;;
9188;SDS011;34313;50.780;6.084;2023-06-10T03:40:42;12.57;;;10.20;;
9188;SDS011;34313;50.780;6.084;2023-06-10T03:43:07;13.50;;;11.07;;
9188;SDS011;34313;50.780;6.084;2023-06-10T03:45:33;11.87;;;10.67;;
9188;SDS011;34313;50.780;6.084;2023-06-10T03:47:58;13.77;;;10.93;;
9188;SDS011;34313;50.780;6.084;2023-06-10T03:50:24;11.70;;;10.03;;
9188;SDS011;34313;50.780;6.084;2023-06-10T03:52:49;13.97;;;10.37;;
9188;SDS011;34313;50.780;6.084;2023-06-10T03:55:16;12.50;;;10.10;;
9188;SDS011;34313;50.780;6.084;2023-06-10T03:57:42;12.47;;;9.57;;
9188;SDS011;34313;50.780;6.084;2023-06-10T04:00:07;10.17;;;9.17;;
9188;SDS011;34313;50.780;6.084;2023-06-10T04:02:36;13.47;;;9.73;;
9188;SDS011;34313;50.780;6.084;2023-06-10T04:05:01;11.27;;;10.17;;
9188;SDS011;34313;50.780;6.084;2023-06-10T04:07:27;11.67;;;9.57;;
9188;SDS011;34313;50.780;6.084;2023-06-10T04:09:53;11.03;;;9.30;;
9188;SDS011;34313;50.780;6.084;2023-06-10T04:12:18;10.07;;;9.07;;
9188;SDS011;34313;50.780;6.084;2023-06-10T04:14:44;11.50;;;9.20;;
9188;SDS011;34313;50.780;6.084;2023-06-10T04:17:09;12.80;;;8.60;;
9188;SDS011;34313;50.780;6.084;2023-06-10T04:19:35;11.23;;;8.70;;
9188;SDS011;34313;50.780;6.084;2023-06-10T04:22:00;10.83;;;9.70;;
9188;SDS011;34313;50.780;6.084;2023-06-10T04:24:27;10.40;;;8.60;;
9188;SDS011;34313;50.780;6.084;2023-06-10T04:26:53;9.73;;;8.73;;
9188;SDS011;34313;50.780;6.084;2023-06-10T04:29:18;12.73;;;8.97;;
9188;SDS011;34313;50.780;6.084;2023-06-10T04:31:43;8.40;;;7.57;;
9188;SDS011;34313;50.780;6.084;2023-06-10T04:34:11;9.17;;;7.93;;
9188;SDS011;34313;50.780;6.084;2023-06-10T04:36:36;13.37;;;8.90;;
9188;SDS011;34313;50.780;6.084;2023-06-10T04:39:01;9.83;;;8.83;;
9188;SDS011;34313;50.780;6.084;2023-06-10T04:41:27;10.87;;;8.17;;
9188;SDS011;34313;50.780;6.084;2023-06-10T04:43:52;9.63;;;8.10;;
9188;SDS011;34313;50.780;6.084;2023-06-10T04:46:18;9.63;;;8.60;;
9188;SDS011;34313;50.780;6.084;2023-06-10T04:48:44;10.50;;;8.03;;
9188;SDS011;34313;50.780;6.084;2023-06-10T04:51:11;8.67;;;7.77;;
9188;SDS011;34313;50.780;6.084;2023-06-10T04:53:39;10.50;;;8.43;;
9188;SDS011;34313;50.780;6.084;2023-06-10T04:56:04;9.80;;;7.30;;
9188;SDS011;34313;50.780;6.084;2023-06-10T04:58:29;11.60;;;8.40;;
9188;SDS011;34313;50.780;6.084;2023-06-10T05:00:55;8.53;;;7.00;;
9188;SDS011;34313;50.780;6.084;2023-06-10T05:03:20;7.43;;;6.73;;
9188;SDS011;34313;50.780;6.084;2023-06-10T05:05:45;12.50;;;7.77;;
9188;SDS011;34313;50.780;6.084;2023-06-10T05:08:11;8.30;;;6.70;;
9188;SDS011;34313;50.780;6.084;2023-06-10T05:10:36;8.83;;;7.50;;
9188;SDS011;34313;50.780;6.084;2023-06-10T05:13:01;8.50;;;6.70;;
9188;SDS011;34313;50.780;6.084;2023-06-10T05:15:28;7.22;;;6.53;;
9188;SDS011;34313;50.780;6.084;2023-06-10T05:17:56;8.23;;;7.00;;
9188;SDS011;34313;50.780;6.084;2023-06-10T05:20:22;7.28;;;6.57;;
9188;SDS011;34313;50.780;6.084;2023-06-10T05:22:47;9.20;;;5.97;;
9188;SDS011;34313;50.780;6.084;2023-06-10T05:25:13;6.32;;;5.57;;
9188;SDS011;34313;50.780;6.084;2023-06-10T05:27:38;9.50;;;5.90;;
9188;SDS011;34313;50.780;6.084;2023-06-10T05:30:05;7.47;;;6.32;;
9188;SDS011;34313;50.780;6.084;2023-06-10T05:32:32;6.93;;;6.28;;
9188;SDS011;34313;50.780;6.084;2023-06-10T05:34:57;6.97;;;5.80;;
9188;SDS011;34313;50.780;6.084;2023-06-10T05:37:25;8.63;;;6.65;;
9188;SDS011;34313;50.780;6.084;2023-06-10T05:39:50;8.25;;;6.63;;
9188;SDS011;34313;50.780;6.084;2023-06-10T05:42:16;6.88;;;6.18;;
9188;SDS011;34313;50.780;6.084;2023-06-10T05:44:41;6.68;;;6.15;;
9188;SDS011;34313;50.780;6.084;2023-06-10T05:47:06;8.48;;;6.55;;
9188;SDS011;34313;50.780;6.084;2023-06-10T05:49:32;6.90;;;6.28;;
9188;SDS011;34313;50.780;6.084;2023-06-10T05:51:57;7.53;;;6.25;;
9188;SDS011;34313;50.780;6.084;2023-06-10T05:54:24;9.18;;;6.05;;
9188;SDS011;34313;50.780;6.084;2023-06-10T05:56:49;6.60;;;6.00;;
9188;SDS011;34313;50.780;6.084;2023-06-10T05:59:15;6.80;;;6.10;;
9188;SDS011;34313;50.780;6.084;2023-06-10T06:01:40;6.22;;;5.63;;
9188;SDS011;34313;50.780;6.084;2023-06-10T06:04:05;9.77;;;6.57;;
9188;SDS011;34313;50.780;6.084;2023-06-10T06:06:31;6.90;;;6.05;;
9188;SDS011;34313;50.780;6.084;2023-06-10T06:08:56;5.80;;;5.30;;
9188;SDS011;34313;50.780;6.084;2023-06-10T06:11:21;8.73;;;5.90;;
9188;SDS011;34313;50.780;6.084;2023-06-10T06:13:47;6.85;;;6.25;;
9188;SDS011;34313;50.780;6.084;2023-06-10T06:16:13;7.15;;;6.55;;
9188;SDS011;34313;50.780;6.084;2023-06-10T06:18:38;7.57;;;6.57;;
9188;SDS011;34313;50.780;6.084;2023-06-10T06:21:04;7.65;;;6.18;;
9188;SDS011;34313;50.780;6.084;2023-06-10T06:23:29;8.50;;;5.97;;
9188;SDS011;34313;50.780;6.084;2023-06-10T06:25:55;7.57;;;6.13;;
9188;SDS011;34313;50.780;6.084;2023-06-10T06:28:20;9.48;;;5.78;;
9188;SDS011;34313;50.780;6.084;2023-06-10T06:30:47;7.65;;;6.80;;
9188;SDS011;34313;50.780;6.084;2023-06-10T06:33:13;9.23;;;6.50;;
9188;SDS011;34313;50.780;6.084;2023-06-10T06:35:38;6.70;;;6.03;;
9188;SDS011;34313;50.780;6.084;2023-06-10T06:38:03;8.30;;;6.35;;
9188;SDS011;34313;50.780;6.084;2023-06-10T06:40:29;6.78;;;5.70;;
9188;SDS011;34313;50.780;6.084;2023-06-10T06:42:54;9.55;;;7.18;;
9188;SDS011;34313;50.780;6.084;2023-06-10T06:45:20;7.05;;;6.40;;
9188;SDS011;34313;50.780;6.084;2023-06-10T06:47:45;7.25;;;6.60;;
9188;SDS011;34313;50.780;6.084;2023-06-10T06:50:10;11.00;;;6.25;;
9188;SDS011;34313;50.780;6.084;2023-06-10T06:52:36;10.57;;;5.85;;
9188;SDS011;34313;50.780;6.084;2023-06-10T06:55:04;6.90;;;5.95;;
9188;SDS011;34313;50.780;6.084;2023-06-10T06:57:29;8.38;;;6.38;;
9188;SDS011;34313;50.780;6.084;2023-06-10T06:59:55;7.00;;;6.03;;
9188;SDS011;34313;50.780;6.084;2023-06-10T07:02:23;8.93;;;6.22;;
9188;SDS011;34313;50.780;6.084;2023-06-10T07:04:48;9.10;;;6.00;;
9188;SDS011;34313;50.780;6.084;2023-06-10T07:07:14;8.77;;;6.53;;
9188;SDS011;34313;50.780;6.084;2023-06-10T07:09:43;6.63;;;5.90;;
9188;SDS011;34313;50.780;6.084;2023-06-10T07:15:33;7.07;;;6.38;;
9188;SDS011;34313;50.780;6.084;2023-06-10T07:17:59;9.27;;;5.85;;
9188;SDS011;34313;50.780;6.084;2023-06-10T07:23:16;6.78;;;6.13;;
9188;SDS011;34313;50.780;6.084;2023-06-10T07:25:41;8.02;;;6.45;;
9188;SDS011;34313;50.780;6.084;2023-06-10T07:28:07;10.07;;;7.45;;
9188;SDS011;34313;50.780;6.084;2023-06-10T07:30:32;10.48;;;6.22;;
9188;SDS011;34313;50.780;6.084;2023-06-10T07:32:57;6.40;;;5.80;;
9188;SDS011;34313;50.780;6.084;2023-06-10T07:35:23;9.77;;;7.88;;
9188;SDS011;34313;50.780;6.084;2023-06-10T07:37:48;6.15;;;5.65;;
9188;SDS011;34313;50.780;6.084;2023-06-10T07:40:14;8.18;;;6.40;;
9188;SDS011;34313;50.780;6.084;2023-06-10T07:42:39;16.90;;;6.18;;
9188;SDS011;34313;50.780;6.084;2023-06-10T07:45:05;7.18;;;6.53;;
9188;SDS011;34313;50.780;6.084;2023-06-10T07:47:32;7.82;;;5.55;;
9188;SDS011;34313;50.780;6.084;2023-06-10T07:49:58;6.82;;;5.95;;
9188;SDS011;34313;50.780;6.084;2023-06-10T07:52:24;5.90;;;5.40;;
9188;SDS011;34313;50.780;6.084;2023-06-10T07:54:55;6.43;;;5.88;;
9188;SDS011;34313;50.780;6.084;2023-06-10T07:57:20;7.32;;;6.65;;
9188;SDS011;34313;50.780;6.084;2023-06-10T07:59:46;7.90;;;6.63;;
9188;SDS011;34313;50.780;6.084;2023-06-10T08:02:11;7.00;;;5.90;;
9188;SDS011;34313;50.780;6.084;2023-06-10T08:04:37;7.38;;;5.82;;
9188;SDS011;34313;50.780;6.084;2023-06-10T08:07:02;8.82;;;6.38;;
9188;SDS011;34313;50.780;6.084;2023-06-10T08:09:28;7.80;;;5.63;;
9188;SDS011;34313;50.780;6.084;2023-06-10T08:11:53;7.47;;;5.97;;
9188;SDS011;34313;50.780;6.084;2023-06-10T08:14:19;12.60;;;6.47;;
9188;SDS011;34313;50.780;6.084;2023-06-10T08:16:44;7.72;;;6.43;;
9188;SDS011;34313;50.780;6.084;2023-06-10T08:19:09;8.80;;;5.78;;
9188;SDS011;34313;50.780;6.084;2023-06-10T08:21:35;7.38;;;6.53;;
9188;SDS011;34313;50.780;6.084;2023-06-10T08:24:04;7.18;;;6.15;;
9188;SDS011;34313;50.780;6.084;2023-06-10T08:26:30;6.35;;;5.80;;
9188;SDS011;34313;50.780;6.084;2023-06-10T08:28:56;7.00;;;6.30;;
9188;SDS011;34313;50.780;6.084;2023-06-10T08:31:21;10.20;;;6.75;;
9188;SDS011;34313;50.780;6.084;2023-06-10T08:33:46;7.13;;;6.43;;
9188;SDS011;34313;50.780;6.084;2023-06-10T08:36:12;7.25;;;6.10;;
9188;SDS011;34313;50.780;6.084;2023-06-10T08:38:37;10.05;;;6.03;;
9188;SDS011;34313;50.780;6.084;2023-06-10T08:41:03;6.38;;;5.85;;
9188;SDS011;34313;50.780;6.084;2023-06-10T08:43:34;6.68;;;6.10;;
9188;SDS011;34313;50.780;6.084;2023-06-10T08:46:04;9.55;;;8.07;;
9188;SDS011;34313;50.780;6.084;2023-06-10T08:48:34;7.70;;;6.10;;
9188;SDS011;34313;50.780;6.084;2023-06-10T08:51:01;9.73;;;6.88;;
9188;SDS011;34313;50.780;6.084;2023-06-10T08:53:29;9.98;;;6.38;;
9188;SDS011;34313;50.780;6.084;2023-06-10T08:55:57;6.03;;;5.45;;
9188;SDS011;34313;50.780;6.084;2023-06-10T08:58:25;7.43;;;6.57;;
9188;SDS011;34313;50.780;6.084;2023-06-10T09:00:52;11.32;;;6.35;;
9188;SDS011;34313;50.780;6.084;2023-06-10T09:03:18;6.80;;;6.13;;
9188;SDS011;34313;50.780;6.084;2023-06-10T09:05:43;7.07;;;6.38;;
9188;SDS011;34313;50.780;6.084;2023-06-10T09:08:09;6.97;;;6.38;;
9188;SDS011;34313;50.780;6.084;2023-06-10T09:10:34;7.22;;;5.93;;
9188;SDS011;34313;50.780;6.084;2023-06-10T09:13:00;11.25;;;6.40;;
9188;SDS011;34313;50.780;6.084;2023-06-10T09:15:25;9.73;;;6.00;;
9188;SDS011;34313;50.780;6.084;2023-06-10T09:17:51;6.78;;;6.13;;
9188;SDS011;34313;50.780;6.084;2023-06-10T09:20:17;7.90;;;6.40;;
9188;SDS011;34313;50.780;6.084;2023-06-10T09:22:43;7.90;;;6.40;;
9188;SDS011;34313;50.780;6.084;2023-06-10T09:25:09;7.32;;;6.03;;
9188;SDS011;34313;50.780;6.084;2023-06-10T09:27:51;9.18;;;6.75;;
9188;SDS011;34313;50.780;6.084;2023-06-10T09:30:28;12.40;;;6.88;;
9188;SDS011;34313;50.780;6.084;2023-06-10T09:33:00;6.20;;;5.60;;
9188;SDS011;34313;50.780;6.084;2023-06-10T09:35:28;7.85;;;5.95;;
9188;SDS011;34313;50.780;6.084;2023-06-10T09:37:55;8.10;;;5.93;;
9188;SDS011;34313;50.780;6.084;2023-06-10T09:40:21;9.05;;;7.43;;
9188;SDS011;34313;50.780;6.084;2023-06-10T09:42:51;8.23;;;6.40;;
9188;SDS011;34313;50.780;6.084;2023-06-10T09:45:22;11.73;;;6.40;;
9188;SDS011;34313;50.780;6.084;2023-06-10T09:47:52;10.05;;;6.35;;
9188;SDS011;34313;50.780;6.084;2023-06-10T09:50:18;7.38;;;6.63;;
9188;SDS011;34313;50.780;6.084;2023-06-10T09:52:45;6.25;;;5.65;;
9188;SDS011;34313;50.780;6.084;2023-06-10T09:55:11;17.30;;;7.53;;
9188;SDS011;34313;50.780;6.084;2023-06-10T09:57:37;7.97;;;5.82;;
9188;SDS011;34313;50.780;6.084;2023-06-10T10:00:07;8.20;;;6.82;;
9188;SDS011;34313;50.780;6.084;2023-06-10T10:02:43;8.45;;;6.65;;
9188;SDS011;34313;50.780;6.084;2023-06-10T10:05:11;9.98;;;6.45;;
9188;SDS011;34313;50.780;6.084;2023-06-10T10:07:38;7.15;;;6.38;;
9188;SDS011;34313;50.780;6.084;2023-06-10T10:10:03;10.57;;;7.78;;
9188;SDS011;34313;50.780;6.084;2023-06-10T10:12:28;7.20;;;6.30;;
9188;SDS011;34313;50.780;6.084;2023-06-10T10:14:54;10.63;;;6.53;;
9188;SDS011;34313;50.780;6.084;2023-06-10T10:17:21;8.63;;;6.55;;
9188;SDS011;34313;50.780;6.084;2023-06-10T10:19:53;7.97;;;7.18;;
9188;SDS011;34313;50.780;6.084;2023-06-10T10:22:29;9.05;;;6.55;;
9188;SDS011;34313;50.780;6.084;2023-06-10T10:25:01;10.43;;;6.60;;
9188;SDS011;34313;50.780;6.084;2023-06-10T10:27:33;7.68;;;6.85;;
9188;SDS011;34313;50.780;6.084;2023-06-10T10:30:07;13.68;;;6.75;;
9188;SDS011;34313;50.780;6.084;2023-06-10T10:32:46;8.93;;;6.88;;
9188;SDS011;34313;50.780;6.084;2023-06-10T10:35:21;9.40;;;7.32;;
9188;SDS011;34313;50.780;6.084;2023-06-10T10:37:48;11.03;;;7.50;;
9188;SDS011;34313;50.780;6.084;2023-06-10T10:40:16;8.15;;;7.28;;
9188;SDS011;34313;50.780;6.084;2023-06-10T10:42:42;8.63;;;6.53;;
9188;SDS011;34313;50.780;6.084;2023-06-10T10:45:08;11.20;;;7.23;;
9188;SDS011;34313;50.780;6.084;2023-06-10T10:47:34;8.43;;;6.60;;
9188;SDS011;34313;50.780;6.084;2023-06-10T10:50:01;10.93;;;7.20;;
9188;SDS011;34313;50.780;6.084;2023-06-10T10:55:22;9.00;;;6.90;;
9188;SDS011;34313;50.780;6.084;2023-06-10T10:57:59;11.30;;;7.00;;
9188;SDS011;34313;50.780;6.084;2023-06-10T11:02:58;8.70;;;6.63;;
9188;SDS011;34313;50.780;6.084;2023-06-10T11:05:41;10.80;;;7.17;;
9188;SDS011;34313;50.780;6.084;2023-06-10T11:08:10;11.60;;;7.33;;
9188;SDS011;34313;50.780;6.084;2023-06-10T11:10:39;8.13;;;7.33;;
9188;SDS011;34313;50.780;6.084;2023-06-10T11:13:25;7.77;;;6.97;;
9188;SDS011;34313;50.780;6.084;2023-06-10T11:15:51;7.90;;;7.10;;
9188;SDS011;34313;50.780;6.084;2023-06-10T11:28:39;16.37;;;7.80;;
9188;SDS011;34313;50.780;6.084;2023-06-10T11:31:27;8.30;;;7.07;;
9188;SDS011;34313;50.780;6.084;2023-06-10T11:33:58;12.53;;;6.47;;
9188;SDS011;34313;50.780;6.084;2023-06-10T11:36:25;7.23;;;6.20;;
9188;SDS011;34313;50.780;6.084;2023-06-10T11:39:01;8.40;;;6.87;;
9188;SDS011;34313;50.780;6.084;2023-06-10T11:41:29;8.40;;;7.37;;
9188;SDS011;34313;50.780;6.084;2023-06-10T11:43:56;10.33;;;6.47;;
9188;SDS011;34313;50.780;6.084;2023-06-10T11:46:25;9.40;;;6.10;;
9188;SDS011;34313;50.780;6.084;2023-06-10T11:48:54;9.60;;;6.20;;
9188;SDS011;34313;50.780;6.084;2023-06-10T11:51:21;8.97;;;6.07;;
9188;SDS011;34313;50.780;6.084;2023-06-10T11:53:47;7.43;;;6.13;;
9188;SDS011;34313;50.780;6.084;2023-06-10T11:56:13;7.70;;;6.40;;
9188;SDS011;34313;50.780;6.084;2023-06-10T11:58:44;7.60;;;6.60;;
9188;SDS011;34313;50.780;6.084;2023-06-10T12:01:10;8.07;;;6.47;;
9188;SDS011;34313;50.780;6.084;2023-06-10T12:03:36;8.60;;;6.03;;
9188;SDS011;34313;50.780;6.084;2023-06-10T12:06:05;6.60;;;6.00;;
9188;SDS011;34313;50.780;6.084;2023-06-10T12:08:32;8.97;;;6.30;;
9188;SDS011;34313;50.780;6.084;2023-06-10T12:10:58;9.43;;;7.13;;
9188;SDS011;34313;50.780;6.084;2023-06-10T12:13:25;8.70;;;5.70;;
9188;SDS011;34313;50.780;6.084;2023-06-10T12:15:52;7.70;;;6.33;;
9188;SDS011;34313;50.780;6.084;2023-06-10T12:18:22;8.20;;;6.70;;
9188;SDS011;34313;50.780;6.084;2023-06-10T12:20:48;6.90;;;6.23;;
9188;SDS011;34313;50.780;6.084;2023-06-10T12:23:14;9.53;;;6.00;;
9188;SDS011;34313;50.780;6.084;2023-06-10T12:25:51;7.00;;;6.30;;
9188;SDS011;34313;50.780;6.084;2023-06-10T12:28:20;7.07;;;6.00;;
9188;SDS011;34313;50.780;6.084;2023-06-10T12:30:46;7.70;;;6.90;;
9188;SDS011;34313;50.780;6.084;2023-06-10T12:33:21;7.50;;;6.10;;
9188;SDS011;34313;50.780;6.084;2023-06-10T12:35:53;8.40;;;6.17;;
9188;SDS011;34313;50.780;6.084;2023-06-10T12:38:21;10.70;;;6.23;;
9188;SDS011;34313;50.780;6.084;2023-06-10T12:40:49;7.40;;;6.70;;
9188;SDS011;34313;50.780;6.084;2023-06-10T12:43:27;9.83;;;6.37;;
9188;SDS011;34313;50.780;6.084;2023-06-10T12:45:53;6.40;;;5.77;;
9188;SDS011;34313;50.780;6.084;2023-06-10T12:48:22;9.37;;;6.57;;
9188;SDS011;34313;50.780;6.084;2023-06-10T12:50:51;10.60;;;6.37;;
9188;SDS011;34313;50.780;6.084;2023-06-10T12:53:18;7.77;;;6.97;;
9188;SDS011;34313;50.780;6.084;2023-06-10T12:55:45;7.23;;;6.50;;
9188;SDS011;34313;50.780;6.084;2023-06-10T12:58:10;7.13;;;6.23;;
9188;SDS011;34313;50.780;6.084;2023-06-10T13:00:36;6.63;;;6.03;;
9188;SDS011;34313;50.780;6.084;2023-06-10T13:03:02;7.00;;;6.27;;
9188;SDS011;34313;50.780;6.084;2023-06-10T13:05:30;7.57;;;6.30;;
9188;SDS011;34313;50.780;6.084;2023-06-10T13:07:56;6.83;;;6.20;;
9188;SDS011;34313;50.780;6.084;2023-06-10T13:10:22;9.83;;;6.53;;
9188;SDS011;34313;50.780;6.084;2023-06-10T13:12:51;6.73;;;6.13;;
9188;SDS011;34313;50.780;6.084;2023-06-10T13:15:17;8.00;;;6.53;;
9188;SDS011;34313;50.780;6.084;2023-06-10T13:17:43;8.43;;;6.20;;
9188;SDS011;34313;50.780;6.084;2023-06-10T13:20:11;6.78;;;6.18;;
9188;SDS011;34313;50.780;6.084;2023-06-10T13:22:36;7.35;;;6.10;;
9188;SDS011;34313;50.780;6.084;2023-06-10T13:25:02;7.18;;;6.05;;
9188;SDS011;34313;50.780;6.084;2023-06-10T13:27:31;6.93;;;6.03;;
9188;SDS011;34313;50.780;6.084;2023-06-10T13:30:08;8.97;;;6.70;;
9188;SDS011;34313;50.780;6.084;2023-06-10T13:32:35;8.30;;;6.40;;
9188;SDS011;34313;50.780;6.084;2023-06-10T13:35:03;8.67;;;6.63;;
9188;SDS011;34313;50.780;6.084;2023-06-10T13:37:32;7.80;;;6.70;;
9188;SDS011;34313;50.780;6.084;2023-06-10T13:39:58;7.63;;;6.40;;
9188;SDS011;34313;50.780;6.084;2023-06-10T13:42:24;6.57;;;5.55;;
9188;SDS011;34313;50.780;6.084;2023-06-10T13:44:51;7.90;;;6.28;;
9188;SDS011;34313;50.780;6.084;2023-06-10T13:47:16;6.50;;;5.47;;
9188;SDS011;34313;50.780;6.084;2023-06-10T13:49:42;9.85;;;6.25;;
9188;SDS011;34313;50.780;6.084;2023-06-10T13:52:08;11.65;;;5.57;;
9188;SDS011;34313;50.780;6.084;2023-06-10T13:54:33;8.18;;;6.38;;
9188;SDS011;34313;50.780;6.084;2023-06-10T13:57:01;7.57;;;6.47;;
9188;SDS011;34313;50.780;6.084;2023-06-10T13:59:26;9.50;;;6.32;;
9188;SDS011;34313;50.780;6.084;2023-06-10T14:01:52;7.15;;;5.75;;
9188;SDS011;34313;50.780;6.084;2023-06-10T14:04:17;11.30;;;5.83;;
9188;SDS011;34313;50.780;6.084;2023-06-10T14:06:43;7.82;;;6.13;;
9188;SDS011;34313;50.780;6.084;2023-06-10T14:09:08;6.20;;;5.60;;
9188;SDS011;34313;50.780;6.084;2023-06-10T14:11:34;6.70;;;5.87;;
9188;SDS011;34313;50.780;6.084;2023-06-10T14:13:59;10.00;;;5.83;;
9188;SDS011;34313;50.780;6.084;2023-06-10T14:16:25;11.70;;;7.50;;
9188;SDS011;34313;50.780;6.084;2023-06-10T14:18:51;9.52;;;7.65;;
9188;SDS011;34313;50.780;6.084;2023-06-10T14:21:16;10.75;;;7.03;;
9188;SDS011;34313;50.780;6.084;2023-06-10T14:23:42;11.93;;;6.30;;
9188;SDS011;34313;50.780;6.084;2023-06-10T14:26:08;6.00;;;5.43;;
9188;SDS011;34313;50.780;6.084;2023-06-10T14:28:34;7.88;;;6.18;;
9188;SDS011;34313;50.780;6.084;2023-06-10T14:31:00;6.57;;;5.97;;
9188;SDS011;34313;50.780;6.084;2023-06-10T14:33:25;9.32;;;5.60;;
9188;SDS011;34313;50.780;6.084;2023-06-10T14:35:50;6.15;;;5.50;;
9188;SDS011;34313;50.780;6.084;2023-06-10T14:38:16;6.03;;;5.43;;
9188;SDS011;34313;50.780;6.084;2023-06-10T14:40:41;5.97;;;5.13;;
9188;SDS011;34313;50.780;6.084;2023-06-10T14:43:06;6.00;;;5.50;;
9188;SDS011;34313;50.780;6.084;2023-06-10T14:45:35;10.68;;;5.47;;
9188;SDS011;34313;50.780;6.084;2023-06-10T14:48:02;9.20;;;5.40;;
9188;SDS011;34313;50.780;6.084;2023-06-10T14:50:27;6.07;;;5.43;;
9188;SDS011;34313;50.780;6.084;2023-06-10T14:52:53;5.25;;;4.75;;
9188;SDS011;34313;50.780;6.084;2023-06-10T14:55:18;6.50;;;5.00;;
9188;SDS011;34313;50.780;6.084;2023-06-10T14:57:43;7.40;;;5.10;;
9188;SDS011;34313;50.780;6.084;2023-06-10T15:00:08;7.05;;;5.15;;
9188;SDS011;34313;50.780;6.084;2023-06-10T15:02:34;7.70;;;5.50;;
9188;SDS011;34313;50.780;6.084;2023-06-10T15:05:00;9.43;;;5.20;;
9188;SDS011;34313;50.780;6.084;2023-06-10T15:07:25;6.50;;;5.35;;
9188;SDS011;34313;50.780;6.084;2023-06-10T15:09:50;5.87;;;5.27;;
9188;SDS011;34313;50.780;6.084;2023-06-10T15:12:16;7.50;;;4.45;;
9188;SDS011;34313;50.780;6.084;2023-06-10T15:14:41;10.30;;;5.90;;
9188;SDS011;34313;50.780;6.084;2023-06-10T15:17:06;7.10;;;5.05;;
9188;SDS011;34313;50.780;6.084;2023-06-10T15:19:32;5.77;;;4.80;;